Tishomingo, OK (73460)

8:52 PM CDT on July 28, 2015 (GMT -0500)
Dickson Volunteer Fire Department | | Change Station
CLOSE
Current Station
Personal Weather Station
Location: Ardmore, OK
Elevation: 866 ft
Nearby Weather Stations
Active Advisory: Heat Advisory

Elev 866 ft 34.19 °N, 97.00 °W | Updated 4 minutes ago

Clear
Clear
85.9 °F
Feels Like 90 °F
N
7.0
Wind Variable Wind from SSE
Gusts 9.0 mph

Today
High -- | Low -- °F
--% Chance of Precip.
Yesterday
High -- | Low -- °F
Precip. -- in
6:34 AM 8:31 PM
Waxing Gibbous, 93% visible
Pressure 29.89 in
Visibility 10.0 miles
Clouds Clear
Heat Index 90 °F
Dew Point 69 °F
Humidity 58%
Rainfall 0.00 in
Snow Depth Not available.
UV 0 out of 12
Pollen 4.80 out of 12
Air Quality Not available.
Flu Activity Not available.
METAR KADM 290135Z AUTO 14003KT 10SM CLR 30/22 A2989 RMK AO2 T03020216

More Conditions Fewer Conditions

Pressure 29.89 in
Visibility 10.0 miles
Clouds Clear
Heat Index 90 °F
Dew Point 69 °F
Humidity 58%
Rainfall 0.00 in
Snow Depth Not available.
UV 0 out of 12
Pollen 4.80 out of 12
Air Quality Not available.
Flu Activity Not available.
METAR KADM 290135Z AUTO 14003KT 10SM CLR 30/22 A2989 RMK AO2 T03020216

More Conditions Fewer Conditions

10-Day Weather Forecast

×

Almanac

Astronomy

Jul. 28, 2015 Rise Set
Actual Time
Civil Twilight
Nautical Twilight
Astronomical Twilight
Moon
Length of Visible Light
Length of Day
Tomorrow will be .
, % of the Moon is Illuminated

Today's Extremes

State Highs State Lows

Community

WunderPhotos

Upload Photos

1,842,002 photos uploaded!

WunderBlogs® & News

Nearby

Air Quality

  Air Quality AQ Index Pollutant
Not available.

Snow Depth

Station Depth Elevation

Earthquake Activity

City Distance Mag. Time & Date
Minimum magnitude displayed is 2.5.

Coastal Water Temperatures

Place Temperature

Stations

Nearby Weather Stations

Station Location Temp. Windchill Dew Point Humidity Wind Precip. Elev Updated Type
                   
Heat Advisory
Statement as of 8:00 PM CDT on July 28, 2015

... Heat advisory remains in effect from 1 PM to 8 PM CDT
Wednesday...

A heat advisory remains in effect from 1 PM to 8 PM CDT
Wednesday.

* Heat indices: around 105 degrees.

* Impacts: heat exhaustion and heat stroke will be possible with
the high heat indices. Take precautions to prevent heat
related illnesses.

Precautionary/preparedness actions...

Take extra precautions if you work or spend time outside. When
possible... reschedule strenuous activities to early morning or
evening. Know the signs and symptoms of heat exhaustion and heat
stroke. Wear light weight and loose fitting clothing when
possible and drink plenty of water.

To reduce risk during outdoor work the occupational safety and
health administration recommends scheduling frequent rest breaks
in shaded or air conditioned environments. Anyone overcome by
heat should be moved to a cool and shaded location. Heat stroke
is an emergency... call 9 1 1.